Time;durP1;ratioP1;P1;durP2;ratioP2;P2;SDS_P1;SDS_P2;PMS_P1;PMS_P2;Temp;Humidity;BMP_temperature;BMP_pressure;BME280_temperature;BME280_humidity;BME280_pressure;Samples;Min_cycle;Max_cycle;Signal;HPM_P1;HPM_P2
2023/02/06 00:00:22;;;;;;;5.75;2.30;;;5.20;99.90;;;;;;5087074;28;19990;-67
2023/02/06 00:02:48;;;;;;;9.63;3.80;;;5.10;99.90;;;;;;5087083;28;20020;-67
2023/02/06 00:05:14;;;;;;;8.52;3.03;;;5.10;99.90;;;;;;5086453;28;20509;-67
2023/02/06 00:07:40;;;;;;;5.07;2.70;;;5.20;99.90;;;;;;5087830;28;20040;-67
2023/02/06 00:10:06;;;;;;;9.93;2.77;;;5.20;99.90;;;;;;5091127;28;20031;-67
2023/02/06 00:12:31;;;;;;;4.22;2.15;;;5.20;99.90;;;;;;5090888;28;20395;-67
2023/02/06 00:14:57;;;;;;;4.57;2.30;;;5.20;99.90;;;;;;5090737;28;20467;-67
2023/02/06 00:17:22;;;;;;;5.63;2.27;;;5.20;99.90;;;;;;5090714;28;20030;-67
2023/02/06 00:19:48;;;;;;;8.93;2.40;;;5.20;99.90;;;;;;5088975;28;20035;-67
2023/02/06 00:22:14;;;;;;;5.77;2.60;;;5.20;99.90;;;;;;5090872;28;20405;-67
2023/02/06 00:24:39;;;;;;;7.83;3.13;;;5.10;99.90;;;;;;5090567;28;20105;-67
2023/02/06 00:27:06;;;;;;;4.47;2.40;;;5.10;99.90;;;;;;5090604;28;20039;-67
2023/02/06 00:29:32;;;;;;;4.32;2.40;;;5.10;99.90;;;;;;5090323;28;20140;-67
2023/02/06 00:31:57;;;;;;;8.03;2.10;;;5.00;99.90;;;;;;5090357;28;20487;-67
2023/02/06 00:34:23;;;;;;;9.37;2.60;;;5.00;99.90;;;;;;5090580;28;20026;-67
2023/02/06 00:36:50;;;;;;;4.88;2.25;;;5.00;99.90;;;;;;5090232;28;20263;-67
2023/02/06 00:39:16;;;;;;;6.00;2.60;;;4.90;99.90;;;;;;5090111;28;20019;-67
2023/02/06 00:41:42;;;;;;;5.88;3.10;;;4.90;99.90;;;;;;5090070;28;20040;-68
2023/02/06 00:44:08;;;;;;;9.80;2.67;;;4.90;99.90;;;;;;5090396;28;20024;-68
2023/02/06 00:46:33;;;;;;;6.40;2.37;;;4.80;99.90;;;;;;5090573;28;20103;-67
2023/02/06 00:48:59;;;;;;;4.43;2.63;;;4.80;99.90;;;;;;5089797;28;20495;-67
2023/02/06 00:51:24;;;;;;;6.07;2.70;;;4.70;99.90;;;;;;5090055;28;20032;-67
2023/02/06 00:53:50;;;;;;;5.17;2.47;;;4.60;99.90;;;;;;5089963;28;20488;-67
2023/02/06 00:56:15;;;;;;;7.47;2.20;;;4.60;99.90;;;;;;5089819;28;20028;-67
2023/02/06 00:58:41;;;;;;;8.93;2.93;;;4.50;99.90;;;;;;5090163;28;20824;-67
2023/02/06 01:01:07;;;;;;;4.60;2.60;;;4.50;99.90;;;;;;5089330;28;20033;-67
2023/02/06 01:03:33;;;;;;;4.00;2.43;;;4.50;99.90;;;;;;5110125;28;20038;-67
2023/02/06 01:05:58;;;;;;;8.38;2.78;;;4.50;99.90;;;;;;5099872;28;20030;-67
2023/02/06 01:08:24;;;;;;;9.03;2.67;;;4.40;99.90;;;;;;5089916;28;20523;-67
2023/02/06 01:10:50;;;;;;;9.47;3.13;;;4.40;99.90;;;;;;5089590;28;20079;-67
2023/02/06 01:13:15;;;;;;;7.53;3.20;;;4.40;99.90;;;;;;5089845;28;20266;-67
2023/02/06 01:15:41;;;;;;;6.60;2.60;;;4.40;99.90;;;;;;5095958;28;20499;-68
2023/02/06 01:18:06;;;;;;;6.00;2.80;;;4.40;99.90;;;;;;5109780;28;20032;-67
2023/02/06 01:20:32;;;;;;;6.73;2.50;;;4.30;99.90;;;;;;5109233;28;20115;-67
2023/02/06 01:22:58;;;;;;;6.80;2.70;;;4.30;99.90;;;;;;5109833;28;20629;-67
2023/02/06 01:25:24;;;;;;;9.70;3.37;;;4.30;99.90;;;;;;5109955;28;20027;-67
2023/02/06 01:27:49;;;;;;;7.72;3.17;;;4.20;99.90;;;;;;5109222;27;20024;-67
2023/02/06 01:30:15;;;;;;;5.50;3.10;;;4.20;99.90;;;;;;5109236;27;20124;-67
2023/02/06 01:32:41;;;;;;;6.63;2.80;;;4.10;99.90;;;;;;5109795;28;20094;-67
2023/02/06 01:35:09;;;;;;;7.13;3.20;;;4.10;99.90;;;;;;5109224;28;20101;-67
2023/02/06 01:37:35;;;;;;;4.82;2.67;;;4.20;99.90;;;;;;5091457;28;20024;-67
2023/02/06 01:40:02;;;;;;;9.55;2.70;;;4.20;99.90;;;;;;5088980;28;20055;-67
2023/02/06 01:42:27;;;;;;;10.73;3.28;;;4.10;99.90;;;;;;5088866;28;20119;-67
2023/02/06 01:45:31;;;;;;;5.87;3.07;;;4.10;99.90;;;;;;5089185;28;20458;-67
2023/02/06 01:48:04;;;;;;;5.85;2.83;;;4.20;99.90;;;;;;5089205;28;20039;-67
2023/02/06 01:50:33;;;;;;;7.75;3.22;;;4.10;99.90;;;;;;5088468;28;20031;-67
2023/02/06 01:52:58;;;;;;;6.00;2.75;;;4.10;99.90;;;;;;5088897;28;20028;-67
2023/02/06 01:55:24;;;;;;;5.68;2.70;;;4.00;99.90;;;;;;5087502;28;20032;-67
2023/02/06 01:57:51;;;;;;;6.50;3.20;;;4.10;99.90;;;;;;5087457;28;20038;-67
2023/02/06 02:00:17;;;;;;;6.47;3.05;;;4.00;99.90;;;;;;5088189;28;20026;-67
2023/02/06 02:02:47;;;;;;;7.80;3.10;;;3.90;99.90;;;;;;5089041;28;20377;-67
2023/02/06 02:05:13;;;;;;;5.82;2.50;;;3.90;99.90;;;;;;5088785;28;20032;-67
2023/02/06 02:07:59;;;;;;;4.60;2.60;;;4.00;99.90;;;;;;5088505;28;20109;-67
2023/02/06 02:10:27;;;;;;;5.10;2.35;;;4.00;99.90;;;;;;5088350;28;20072;-67
2023/02/06 02:12:52;;;;;;;6.28;2.92;;;3.90;99.90;;;;;;5088382;28;20022;-67
2023/02/06 02:15:20;;;;;;;7.60;3.07;;;3.80;99.90;;;;;;5097876;28;20040;-67
2023/02/06 02:18:01;;;;;;;7.03;2.67;;;3.80;99.90;;;;;;5108580;28;20533;-67
2023/02/06 02:21:03;;;;;;;9.13;3.15;;;3.80;99.90;;;;;;5108681;28;20042;-67
2023/02/06 02:23:49;;;;;;;4.53;2.80;;;3.80;99.90;;;;;;5108628;28;20030;-67
2023/02/06 02:26:48;;;;;;;7.72;4.32;;;3.70;99.90;;;;;;5105106;28;20028;-67
2023/02/06 02:29:40;;;;;;;7.47;2.67;;;3.70;99.90;;;;;;5090915;28;20027;-67
2023/02/06 02:32:14;;;;;;;6.47;2.90;;;3.80;99.90;;;;;;5083547;28;20531;-67
2023/02/06 02:35:01;;;;;;;6.65;2.50;;;3.80;99.90;;;;;;5079063;28;20065;-67
2023/02/06 02:37:58;;;;;;;5.07;2.93;;;3.80;99.90;;;;;;5080235;28;20074;-67
2023/02/06 02:40:48;;;;;;;6.60;2.83;;;3.80;99.90;;;;;;5075959;28;20052;-68
2023/02/06 02:43:28;;;;;;;9.48;2.92;;;3.80;99.90;;;;;;5086575;28;20058;-68
2023/02/06 02:46:01;;;;;;;7.65;2.88;;;3.80;99.90;;;;;;5085865;28;20066;-68
2023/02/06 02:48:37;;;;;;;5.43;2.65;;;3.80;99.90;;;;;;5086082;28;20028;-68
2023/02/06 02:51:04;;;;;;;5.10;2.92;;;3.80;99.90;;;;;;5086198;28;20508;-67
2023/02/06 02:53:30;;;;;;;6.20;3.38;;;3.70;99.90;;;;;;5085941;28;20016;-68
2023/02/06 02:55:56;;;;;;;4.82;2.72;;;3.70;99.90;;;;;;5089648;28;20035;-68
2023/02/06 02:58:25;;;;;;;6.07;3.00;;;3.80;99.90;;;;;;5098478;28;20027;-68
2023/02/06 03:00:59;;;;;;;10.15;3.13;;;3.70;99.90;;;;;;5086686;28;20506;-68
2023/02/06 03:03:29;;;;;;;6.20;3.35;;;3.70;99.90;;;;;;5082594;28;20467;-68
2023/02/06 03:06:50;;;;;;;5.40;3.05;;;3.70;99.90;;;;;;5086081;28;20032;-68
2023/02/06 03:09:31;;;;;;;6.57;2.60;;;3.60;99.90;;;;;;5043233;28;20051;-68
2023/02/06 03:12:21;;;;;;;5.55;3.03;;;3.70;99.90;;;;;;5078410;28;20040;-67
2023/02/06 03:14:59;;;;;;;6.70;3.00;;;3.70;99.90;;;;;;5079777;28;20381;-68
2023/02/06 03:17:39;;;;;;;6.88;3.25;;;3.70;99.90;;;;;;5084987;28;20078;-68
2023/02/06 03:20:08;;;;;;;6.63;3.22;;;3.80;99.90;;;;;;5086249;28;20040;-67
2023/02/06 03:22:35;;;;;;;4.80;2.90;;;3.80;99.90;;;;;;5086002;28;20083;-67
2023/02/06 03:25:09;;;;;;;6.65;3.10;;;3.80;99.90;;;;;;5085627;28;20074;-68
2023/02/06 03:27:37;;;;;;;6.03;2.92;;;3.70;99.90;;;;;;5086476;28;20783;-67
2023/02/06 03:30:05;;;;;;;12.40;3.20;;;3.80;99.90;;;;;;5085965;28;20047;-67
2023/02/06 03:32:34;;;;;;;6.45;2.80;;;3.70;99.90;;;;;;5085322;28;20039;-68
2023/02/06 03:35:31;;;;;;;8.05;3.85;;;3.80;99.90;;;;;;5085827;28;20017;-68
2023/02/06 03:37:57;;;;;;;9.27;3.53;;;3.80;99.90;;;;;;5071411;28;20047;-67
2023/02/06 03:40:25;;;;;;;11.98;2.85;;;3.80;99.90;;;;;;5085578;28;20028;-67
2023/02/06 03:42:55;;;;;;;15.38;3.70;;;3.70;99.90;;;;;;5088565;28;20488;-67
2023/02/06 03:45:28;;;;;;;7.00;3.30;;;3.70;99.90;;;;;;5087941;28;20589;-67
2023/02/06 03:47:56;;;;;;;9.05;4.13;;;3.70;99.90;;;;;;5090164;28;20032;-67
2023/02/06 03:50:24;;;;;;;8.82;4.80;;;3.70;99.90;;;;;;5088899;28;20860;-67
2023/02/06 03:52:52;;;;;;;10.07;4.30;;;3.80;99.90;;;;;;5090303;28;20127;-68
2023/02/06 03:55:20;;;;;;;10.73;4.95;;;3.90;99.90;;;;;;5090037;28;20039;-68
2023/02/06 03:57:51;;;;;;;7.78;3.97;;;3.90;99.90;;;;;;5090416;28;20016;-67
2023/02/06 04:00:18;;;;;;;7.72;4.10;;;3.80;99.90;;;;;;5089561;28;20036;-68
2023/02/06 04:02:46;;;;;;;;;;;3.80;99.90;;;;;;5090623;28;20070;-67
2023/02/06 04:05:12;;;;;;;9.07;4.03;;;3.70;99.90;;;;;;5096416;28;19935;-67
2023/02/06 04:07:38;;;;;;;8.10;3.85;;;3.60;99.90;;;;;;5089430;28;20035;-67
2023/02/06 04:10:03;;;;;;;10.60;4.40;;;3.50;99.90;;;;;;5089545;28;20044;-67
2023/02/06 04:12:30;;;;;;;7.63;3.92;;;3.60;99.90;;;;;;5089543;28;20574;-67
2023/02/06 04:14:55;;;;;;;9.63;3.85;;;3.60;99.90;;;;;;5089921;28;20024;-67
2023/02/06 04:17:21;;;;;;;7.37;4.03;;;3.50;99.90;;;;;;5087740;28;20085;-67
2023/02/06 04:19:46;;;;;;;12.60;4.53;;;3.50;99.90;;;;;;5088407;28;20043;-67
2023/02/06 04:22:15;;;;;;;7.27;4.13;;;3.40;99.90;;;;;;5089947;28;20488;-68
2023/02/06 04:24:40;;;;;;;15.18;5.50;;;3.30;99.90;;;;;;5089794;28;20030;-68
2023/02/06 04:27:12;;;;;;;13.40;4.38;;;3.30;99.90;;;;;;5089396;28;20035;-67
2023/02/06 04:29:37;;;;;;;10.07;3.75;;;3.20;99.90;;;;;;5089092;28;20080;-67
2023/02/06 04:32:04;;;;;;;15.60;4.33;;;3.20;99.90;;;;;;5087990;28;20055;-68
2023/02/06 04:34:31;;;;;;;9.55;5.70;;;3.20;99.90;;;;;;5088878;28;20296;-67
2023/02/06 04:36:57;;;;;;;13.07;5.65;;;3.20;99.90;;;;;;5088427;28;20028;-68
2023/02/06 04:39:23;;;;;;;;;;;3.10;99.90;;;;;;5089820;28;20027;-68
2023/02/06 04:41:48;;;;;;;12.23;5.50;;;3.00;99.90;;;;;;5089147;28;19908;-68
2023/02/06 04:44:14;;;;;;;14.07;5.67;;;3.00;99.90;;;;;;5089276;28;20084;-67
2023/02/06 04:46:39;;;;;;;11.87;6.17;;;3.00;99.90;;;;;;5089301;28;20028;-67
2023/02/06 04:49:05;;;;;;;11.37;5.30;;;2.90;99.90;;;;;;5089070;28;20471;-67
2023/02/06 04:51:31;;;;;;;13.27;5.73;;;3.00;99.90;;;;;;5088732;28;20492;-67
2023/02/06 04:53:56;;;;;;;11.90;6.03;;;3.00;99.90;;;;;;5086301;28;20047;-67
2023/02/06 04:56:24;;;;;;;9.50;5.53;;;3.00;99.90;;;;;;5088732;28;20032;-67
2023/02/06 04:58:50;;;;;;;10.07;5.05;;;3.00;99.90;;;;;;5089040;28;20262;-67
2023/02/06 05:01:16;;;;;;;19.02;6.78;;;3.10;99.90;;;;;;5089110;28;20024;-67
2023/02/06 05:03:42;;;;;;;14.43;6.25;;;3.10;99.90;;;;;;5088890;28;20036;-67
2023/02/06 05:06:08;;;;;;;13.57;6.43;;;3.20;99.90;;;;;;5089003;28;20030;-67
2023/02/06 05:08:33;;;;;;;11.00;6.77;;;3.30;99.90;;;;;;5088301;28;20028;-67
2023/02/06 05:10:59;;;;;;;13.77;6.47;;;3.40;99.90;;;;;;5088440;28;20524;-67
2023/02/06 05:13:25;;;;;;;14.33;6.87;;;3.50;99.90;;;;;;5088246;28;20032;-66
2023/02/06 05:15:50;;;;;;;18.07;8.63;;;3.40;99.90;;;;;;5088698;28;20373;-67
2023/02/06 05:18:16;;;;;;;27.83;11.13;;;3.30;99.90;;;;;;5088175;28;20055;-67
2023/02/06 05:20:42;;;;;;;41.55;16.52;;;3.20;99.90;;;;;;5088640;28;20056;-67
2023/02/06 05:23:09;;;;;;;43.40;16.73;;;3.20;99.90;;;;;;5088368;28;20067;-67
2023/02/06 05:25:35;;;;;;;31.65;12.32;;;3.20;99.90;;;;;;5088250;28;20031;-67
2023/02/06 05:28:05;;;;;;;32.15;11.75;;;3.30;99.90;;;;;;5088729;28;20054;-67
2023/02/06 05:30:31;;;;;;;22.15;9.02;;;3.40;99.90;;;;;;5087686;28;20066;-67
2023/02/06 05:32:57;;;;;;;19.17;8.32;;;3.40;99.90;;;;;;5093692;28;20059;-67
2023/02/06 05:35:23;;;;;;;18.02;8.02;;;3.50;99.90;;;;;;5086617;28;20777;-67
2023/02/06 05:37:49;;;;;;;22.58;9.57;;;3.50;99.90;;;;;;5088115;28;20032;-67
2023/02/06 05:40:14;;;;;;;20.50;9.98;;;3.50;99.90;;;;;;5088674;28;20040;-67
2023/02/06 05:42:40;;;;;;;17.02;9.40;;;3.60;99.90;;;;;;5087479;28;20020;-67
2023/02/06 05:45:06;;;;;;;19.65;8.25;;;3.70;99.90;;;;;;5088083;28;20165;-67
2023/02/06 05:47:32;;;;;;;17.80;7.70;;;3.70;99.90;;;;;;5087570;28;20455;-67
2023/02/06 05:49:57;;;;;;;14.50;8.23;;;3.70;99.90;;;;;;5087337;28;20040;-67
2023/02/06 05:52:23;;;;;;;17.20;8.63;;;3.90;99.90;;;;;;5089033;28;20047;-67
2023/02/06 05:54:48;;;;;;;14.23;7.97;;;3.90;99.90;;;;;;5087880;28;20020;-67
2023/02/06 05:57:14;;;;;;;15.67;7.17;;;4.00;99.90;;;;;;5088541;28;20395;-66
2023/02/06 05:59:40;;;;;;;18.27;7.93;;;4.10;99.90;;;;;;5088040;28;20024;-66
2023/02/06 06:02:06;;;;;;;12.47;7.87;;;4.20;99.90;;;;;;5087864;28;20027;-67
2023/02/06 06:04:31;;;;;;;14.75;7.97;;;4.20;99.90;;;;;;5085692;28;20043;-67
2023/02/06 06:06:57;;;;;;;14.95;8.40;;;4.20;99.90;;;;;;5086943;28;20035;-67
2023/02/06 06:09:23;;;;;;;26.03;9.00;;;4.30;99.90;;;;;;5086212;28;20028;-67
2023/02/06 06:11:50;;;;;;;12.70;7.23;;;4.30;99.90;;;;;;5087138;28;20043;-67
2023/02/06 06:14:16;;;;;;;18.42;10.10;;;4.30;99.90;;;;;;5087750;28;20065;-67
2023/02/06 06:16:41;;;;;;;14.95;9.23;;;4.30;99.90;;;;;;5086850;28;20028;-67
2023/02/06 06:19:08;;;;;;;13.95;8.57;;;4.40;99.90;;;;;;5086921;28;20036;-68
2023/02/06 06:21:34;;;;;;;14.57;8.15;;;4.40;99.90;;;;;;5087467;28;20039;-67
2023/02/06 06:24:00;;;;;;;17.02;9.00;;;4.40;99.90;;;;;;5087178;28;20040;-68
2023/02/06 06:26:26;;;;;;;;;;;4.40;99.90;;;;;;5087417;28;20120;-68
2023/02/06 06:28:51;;;;;;;15.38;8.68;;;4.40;99.90;;;;;;5086842;28;20406;-68
2023/02/06 06:31:17;;;;;;;14.60;9.20;;;4.40;99.90;;;;;;5084694;28;20044;-67
2023/02/06 06:33:43;;;;;;;14.80;8.95;;;4.40;99.90;;;;;;5081617;28;20278;-68
2023/02/06 06:36:10;;;;;;;14.80;8.90;;;4.40;99.90;;;;;;5085139;28;20081;-67
2023/02/06 06:38:37;;;;;;;16.23;9.10;;;4.40;99.90;;;;;;5085682;28;20043;-69
2023/02/06 06:41:03;;;;;;;15.13;8.55;;;4.40;99.90;;;;;;5086875;28;20518;-68
2023/02/06 06:43:29;;;;;;;14.68;9.15;;;4.40;99.90;;;;;;5082220;28;20043;-69
2023/02/06 06:45:55;;;;;;;21.70;11.07;;;4.40;99.90;;;;;;5083464;28;20032;-69
2023/02/06 06:48:21;;;;;;;15.77;9.20;;;4.40;99.90;;;;;;5085869;28;20028;-69
2023/02/06 06:50:48;;;;;;;21.42;10.00;;;4.40;99.90;;;;;;5080522;28;20066;-70
2023/02/06 06:53:14;;;;;;;16.50;10.10;;;4.40;99.90;;;;;;5082791;28;20028;-69
2023/02/06 06:55:39;;;;;;;18.73;9.97;;;4.40;99.90;;;;;;5079253;28;20490;-68
2023/02/06 06:58:05;;;;;;;16.60;9.90;;;4.40;99.90;;;;;;5084316;28;20027;-68
2023/02/06 07:00:30;;;;;;;18.43;10.07;;;4.40;99.90;;;;;;5079615;28;20035;-68
2023/02/06 07:02:56;;;;;;;19.97;9.93;;;4.40;99.90;;;;;;5085688;28;20060;-68
2023/02/06 07:05:22;;;;;;;17.47;9.93;;;4.50;99.90;;;;;;5083244;28;20028;-69
2023/02/06 07:07:47;;;;;;;20.43;11.40;;;4.50;99.90;;;;;;5086178;28;20078;-70
2023/02/06 07:10:13;;;;;;;18.83;11.43;;;4.50;99.90;;;;;;5085772;28;20312;-70
2023/02/06 07:12:39;;;;;;;16.45;11.23;;;4.50;99.90;;;;;;5085472;28;20023;-69
2023/02/06 07:15:05;;;;;;;16.03;10.13;;;4.50;99.90;;;;;;5086195;28;20032;-68
2023/02/06 07:17:31;;;;;;;16.80;10.80;;;4.40;99.90;;;;;;5081364;28;20039;-68
2023/02/06 07:19:56;;;;;;;16.13;10.57;;;4.50;99.90;;;;;;5086053;28;20048;-70
2023/02/06 07:22:22;;;;;;;20.40;12.10;;;4.50;99.90;;;;;;5085760;28;20024;-68
2023/02/06 07:24:47;;;;;;;16.30;11.23;;;4.50;99.90;;;;;;5085779;28;20629;-68
2023/02/06 07:27:13;;;;;;;18.43;11.17;;;4.50;99.90;;;;;;5088408;28;20031;-67
2023/02/06 07:29:39;;;;;;;18.90;11.35;;;4.50;99.90;;;;;;5084822;28;20034;-69
2023/02/06 07:32:05;;;;;;;17.90;11.53;;;4.60;99.90;;;;;;5084267;28;20438;-68
2023/02/06 07:34:31;;;;;;;18.67;11.52;;;4.50;99.90;;;;;;5078807;28;20095;-67
2023/02/06 07:36:58;;;;;;;17.40;11.57;;;4.50;99.90;;;;;;5080912;28;20135;-68
2023/02/06 07:39:24;;;;;;;18.30;11.65;;;4.60;99.90;;;;;;5079072;28;20024;-67
2023/02/06 07:41:50;;;;;;;17.90;11.05;;;4.60;99.90;;;;;;5078539;28;20027;-68
2023/02/06 07:44:16;;;;;;;19.70;11.43;;;4.70;99.90;;;;;;5086105;28;20024;-67
2023/02/06 07:46:42;;;;;;;24.38;12.68;;;4.80;99.90;;;;;;5086156;28;20028;-68
2023/02/06 07:49:10;;;;;;;21.40;11.80;;;4.80;99.90;;;;;;5086181;28;20041;-67
2023/02/06 07:51:35;;;;;;;17.83;11.18;;;4.90;99.90;;;;;;5085441;28;20463;-67
2023/02/06 07:54:01;;;;;;;17.20;11.53;;;4.80;99.90;;;;;;5085395;28;20013;-67
2023/02/06 07:56:26;;;;;;;19.07;11.70;;;4.80;99.90;;;;;;5084036;28;20491;-67
2023/02/06 07:58:53;;;;;;;18.20;11.13;;;4.80;99.90;;;;;;5084651;28;20028;-67
2023/02/06 08:01:21;;;;;;;17.17;10.85;;;4.80;99.90;;;;;;5085000;28;20032;-68
2023/02/06 08:03:51;;;;;;;21.55;10.90;;;4.80;99.90;;;;;;5085141;28;20895;-68
2023/02/06 08:06:18;;;;;;;28.88;13.73;;;4.70;99.90;;;;;;5084375;28;20097;-67
2023/02/06 08:08:44;;;;;;;16.52;10.95;;;4.70;99.90;;;;;;5079737;28;20785;-67
2023/02/06 08:11:13;;;;;;;16.80;10.73;;;4.80;99.90;;;;;;5082643;28;20051;-67
2023/02/06 08:13:40;;;;;;;17.83;11.30;;;4.80;99.90;;;;;;5084140;28;20282;-68
2023/02/06 08:16:09;;;;;;;15.18;10.18;;;5.40;99.90;;;;;;5082262;28;20043;-67
2023/02/06 08:18:35;;;;;;;14.32;9.57;;;5.40;99.90;;;;;;5085088;28;20123;-67
2023/02/06 08:21:06;;;;;;;15.93;10.45;;;5.60;99.90;;;;;;5085882;28;20107;-68
2023/02/06 08:23:32;;;;;;;19.83;11.50;;;6.00;99.90;;;;;;5085567;28;20035;-68
2023/02/06 08:26:17;;;;;;;15.93;10.37;;;6.30;99.90;;;;;;5086316;28;20036;-68
2023/02/06 08:28:46;;;;;;;17.33;10.20;;;6.40;99.90;;;;;;5086574;28;20312;-68
2023/02/06 08:31:19;;;;;;;15.32;9.32;;;6.30;99.90;;;;;;5082488;28;20028;-68
2023/02/06 08:33:45;;;;;;;17.73;10.52;;;6.40;99.90;;;;;;5087814;28;20486;-68
2023/02/06 08:36:12;;;;;;;18.70;11.00;;;6.70;99.90;;;;;;5089523;28;20039;-68
2023/02/06 08:38:38;;;;;;;15.10;9.50;;;6.70;99.90;;;;;;5089235;28;20028;-67
2023/02/06 08:41:04;;;;;;;16.52;9.82;;;6.70;99.90;;;;;;5089467;28;20477;-67
2023/02/06 08:43:29;;;;;;;15.77;10.15;;;6.70;99.90;;;;;;5088243;28;20028;-67
2023/02/06 08:45:58;;;;;;;15.90;10.00;;;6.70;99.90;;;;;;5088025;28;20050;-69
2023/02/06 08:48:24;;;;;;;24.65;10.77;;;6.80;99.90;;;;;;5088406;28;20319;-68
2023/02/06 08:50:50;;;;;;;18.40;11.32;;;7.00;99.90;;;;;;5088727;28;20057;-68
2023/02/06 08:53:16;;;;;;;15.50;9.30;;;6.90;99.90;;;;;;5089080;28;20530;-67
2023/02/06 08:55:41;;;;;;;16.10;10.20;;;7.40;99.90;;;;;;5087845;28;20370;-68
2023/02/06 08:58:07;;;;;;;17.23;9.70;;;7.30;99.90;;;;;;5088844;28;20028;-67
2023/02/06 09:00:33;;;;;;;15.27;9.93;;;7.50;99.90;;;;;;5086265;28;20028;-67
2023/02/06 09:02:58;;;;;;;16.67;9.53;;;8.00;99.90;;;;;;5089192;28;20406;-68
2023/02/06 09:05:24;;;;;;;14.80;9.10;;;8.80;99.70;;;;;;5086794;28;20810;-67
2023/02/06 09:07:49;;;;;;;13.03;9.17;;;8.90;99.30;;;;;;5082728;28;20036;-67
2023/02/06 09:10:15;;;;;;;14.37;8.83;;;8.60;99.60;;;;;;5085639;28;20408;-67
2023/02/06 09:12:41;;;;;;;17.45;10.15;;;8.40;99.90;;;;;;5087067;28;20028;-67
2023/02/06 09:15:07;;;;;;;14.63;9.73;;;8.10;99.90;;;;;;5083793;28;20491;-67
2023/02/06 09:17:34;;;;;;;19.27;9.55;;;8.00;99.90;;;;;;5087053;28;20027;-67
2023/02/06 09:20:00;;;;;;;16.40;9.73;;;7.60;99.90;;;;;;5093124;28;20036;-67
2023/02/06 09:22:26;;;;;;;;;;;7.40;99.90;;;;;;5083390;28;20101;-67
2023/02/06 09:24:52;;;;;;;17.92;10.40;;;7.20;99.90;;;;;;5087166;28;20329;-67
2023/02/06 09:27:18;;;;;;;19.27;10.07;;;6.90;99.90;;;;;;5088082;28;20036;-67
2023/02/06 09:29:43;;;;;;;15.25;10.27;;;6.80;99.90;;;;;;5078778;28;20094;-67
2023/02/06 09:32:09;;;;;;;18.70;9.93;;;6.70;99.90;;;;;;5081319;28;20036;-67
2023/02/06 09:34:35;;;;;;;13.37;9.67;;;6.80;99.90;;;;;;5085134;28;20088;-67
2023/02/06 09:37:02;;;;;;;23.53;12.33;;;6.80;99.90;;;;;;5086086;28;20036;-67
2023/02/06 09:39:28;;;;;;;15.10;9.93;;;7.00;99.90;;;;;;5085919;28;20036;-67
2023/02/06 09:42:04;;;;;;;14.05;9.50;;;7.00;99.90;;;;;;5087841;28;20081;-67
2023/02/06 09:44:37;;;;;;;13.43;9.55;;;6.90;99.90;;;;;;5079696;28;20039;-67
2023/02/06 09:47:15;;;;;;;14.52;9.55;;;7.00;99.90;;;;;;5087837;28;20135;-68
2023/02/06 09:50:02;;;;;;;14.75;9.27;;;7.10;99.90;;;;;;5087214;28;20620;-67
2023/02/06 09:52:43;;;;;;;13.60;9.10;;;7.60;99.90;;;;;;5078575;28;20046;-67
2023/02/06 09:55:27;;;;;;;12.20;8.60;;;7.90;99.90;;;;;;5079073;28;20030;-67
2023/02/06 09:58:21;;;;;;;17.63;10.55;;;7.70;99.90;;;;;;5086104;28;20048;-67
2023/02/06 10:01:11;;;;;;;15.02;9.20;;;7.60;99.90;;;;;;5082900;28;20564;-67
2023/02/06 10:03:55;;;;;;;13.93;9.82;;;7.90;99.90;;;;;;5095153;28;20466;-67
2023/02/06 10:06:45;;;;;;;13.85;8.95;;;8.00;99.90;;;;;;5084012;28;20464;-67
2023/02/06 10:09:17;;;;;;;16.25;10.13;;;8.20;99.90;;;;;;5081403;28;20511;-67
2023/02/06 10:11:59;;;;;;;13.77;8.90;;;8.30;99.90;;;;;;5087203;28;20032;-67
2023/02/06 10:14:33;;;;;;;17.08;9.88;;;8.20;99.90;;;;;;5085829;28;20549;-67
2023/02/06 10:17:05;;;;;;;16.85;9.85;;;8.20;99.90;;;;;;5087618;28;20036;-69
2023/02/06 10:19:59;;;;;;;13.30;9.20;;;8.50;99.90;;;;;;5085955;28;20508;-67
2023/02/06 10:22:37;;;;;;;12.60;8.70;;;8.50;99.60;;;;;;5085374;28;20099;-67
2023/02/06 10:25:29;;;;;;;13.55;9.40;;;8.50;99.40;;;;;;5079223;28;20081;-67
2023/02/06 10:28:26;;;;;;;13.20;9.43;;;8.60;99.20;;;;;;5078393;28;20047;-68
2023/02/06 10:31:13;;;;;;;14.73;8.88;;;8.50;98.80;;;;;;5079793;28;20052;-67
2023/02/06 10:34:15;;;;;;;15.27;9.27;;;8.50;99.70;;;;;;5083113;28;20047;-68
2023/02/06 10:36:57;;;;;;;15.85;9.43;;;8.60;99.10;;;;;;5080938;28;20033;-67
2023/02/06 10:39:53;;;;;;;24.38;12.00;;;8.70;98.70;;;;;;5083349;28;20035;-68
2023/02/06 10:42:51;;;;;;;18.58;9.50;;;8.60;98.50;;;;;;5081747;28;20140;-68
2023/02/06 10:45:23;;;;;;;;;;;8.50;98.90;;;;;;5100341;28;20515;-68
2023/02/06 10:47:53;;;;;;;11.13;8.10;;;8.60;98.70;;;;;;5084073;28;20002;-68
2023/02/06 10:50:38;;;;;;;11.45;7.63;;;8.60;98.80;;;;;;5080794;28;20040;-67
2023/02/06 10:53:34;;;;;;;11.00;7.75;;;8.50;98.60;;;;;;5081523;28;20032;-66
2023/02/06 10:56:07;;;;;;;11.65;7.85;;;8.70;98.20;;;;;;5082925;28;20064;-67
2023/02/06 10:58:51;;;;;;;11.23;7.28;;;8.60;98.30;;;;;;5083598;28;20523;-68
2023/02/06 11:01:19;;;;;;;12.43;8.90;;;8.60;97.80;;;;;;5080649;28;20036;-72
2023/02/06 11:03:53;;;;;;;15.93;8.63;;;8.50;98.40;;;;;;5080575;28;20074;-69
2023/02/06 11:06:21;;;;;;;13.68;8.40;;;8.50;98.40;;;;;;5085870;28;20074;-68
2023/02/06 11:08:47;;;;;;;12.43;8.25;;;8.70;98.60;;;;;;5086680;28;20437;-69
2023/02/06 11:11:25;;;;;;;10.35;7.30;;;8.90;97.90;;;;;;5083809;28;20504;-69
2023/02/06 11:13:57;;;;;;;15.77;9.60;;;8.90;97.30;;;;;;5089475;28;20051;-69
2023/02/06 11:16:27;;;;;;;13.82;8.82;;;9.00;97.30;;;;;;5082700;28;20028;-69
2023/02/06 11:18:58;;;;;;;11.73;8.25;;;9.00;97.60;;;;;;5085255;28;20024;-69
2023/02/06 11:21:40;;;;;;;12.23;7.55;;;9.10;97.30;;;;;;5085541;28;20129;-68
2023/02/06 11:24:11;;;;;;;12.57;7.82;;;9.00;97.50;;;;;;5085080;28;20043;-69
2023/02/06 11:26:42;;;;;;;16.65;8.30;;;9.00;97.10;;;;;;5079991;28;20481;-68
2023/02/06 11:29:17;;;;;;;10.57;7.80;;;9.00;97.20;;;;;;5083710;28;20546;-68
2023/02/06 11:31:57;;;;;;;12.00;7.30;;;9.10;96.80;;;;;;5084745;28;20028;-68
2023/02/06 11:34:31;;;;;;;10.27;6.93;;;9.10;97.10;;;;;;5085879;28;20467;-68
2023/02/06 11:37:04;;;;;;;10.98;7.10;;;9.00;96.90;;;;;;5085717;28;20081;-68
2023/02/06 11:39:37;;;;;;;12.48;7.70;;;9.00;96.70;;;;;;5083484;28;20488;-69
2023/02/06 11:42:12;;;;;;;13.82;8.05;;;8.90;96.80;;;;;;5086524;28;20028;-68
2023/02/06 11:44:41;;;;;;;14.05;7.22;;;9.00;97.00;;;;;;5081876;28;20024;-68
2023/02/06 11:47:29;;;;;;;12.45;8.20;;;8.90;97.20;;;;;;5082733;28;20114;-68
2023/02/06 11:50:11;;;;;;;10.00;7.18;;;8.90;97.20;;;;;;5086013;28;20032;-68
2023/02/06 11:52:38;;;;;;;16.55;8.40;;;8.80;97.40;;;;;;5081990;28;20089;-68
2023/02/06 11:55:04;;;;;;;11.63;7.93;;;8.80;97.10;;;;;;5084237;28;20031;-68
2023/02/06 11:57:32;;;;;;;10.88;7.53;;;8.90;96.40;;;;;;5080828;28;20496;-68
2023/02/06 12:00:17;;;;;;;11.07;7.85;;;9.10;96.60;;;;;;5083924;28;20058;-68
2023/02/06 12:02:49;;;;;;;9.82;7.47;;;9.10;96.60;;;;;;5085339;28;20066;-68
2023/02/06 12:05:17;;;;;;;12.52;7.22;;;9.00;96.30;;;;;;5090360;28;20035;-68
2023/02/06 12:07:59;;;;;;;10.98;6.82;;;8.90;96.50;;;;;;5082363;28;20027;-69
2023/02/06 12:10:25;;;;;;;9.38;7.07;;;8.70;96.20;;;;;;5086986;28;20122;-68
2023/02/06 12:13:12;;;;;;;12.45;7.57;;;8.90;96.30;;;;;;5085028;28;20021;-67
2023/02/06 12:15:42;;;;;;;12.85;7.15;;;8.90;96.30;;;;;;5084606;28;20111;-68
2023/02/06 12:18:32;;;;;;;11.10;8.02;;;8.90;96.80;;;;;;5088224;28;20032;-68
2023/02/06 12:21:13;;;;;;;11.63;7.97;;;9.00;96.50;;;;;;5083312;28;20407;-68
2023/02/06 12:23:57;;;;;;;11.77;8.55;;;9.10;95.90;;;;;;5086578;28;20032;-68
2023/02/06 12:26:26;;;;;;;10.60;7.68;;;8.90;96.30;;;;;;5084531;28;20507;-69
2023/02/06 12:29:04;;;;;;;13.57;8.50;;;8.70;96.60;;;;;;5088257;28;20028;-69
2023/02/06 12:32:06;;;;;;;12.40;8.23;;;8.60;97.20;;;;;;5080139;28;20123;-69
2023/02/06 12:34:52;;;;;;;10.93;7.47;;;8.40;97.30;;;;;;5087309;28;20051;-69
2023/02/06 12:37:41;;;;;;;11.18;7.90;;;8.20;97.60;;;;;;5088899;28;20028;-70
2023/02/06 12:40:37;;;;;;;10.23;7.97;;;8.20;98.20;;;;;;5089145;28;20526;-69
2023/02/06 12:43:08;;;;;;;13.90;8.27;;;8.30;98.70;;;;;;5083082;28;20024;-70
2023/02/06 12:45:55;;;;;;;10.85;8.07;;;8.30;98.60;;;;;;5084797;28;20080;-70
2023/02/06 12:48:34;;;;;;;13.17;8.53;;;8.10;97.90;;;;;;5084735;28;20032;-69
2023/02/06 12:51:13;;;;;;;10.23;7.82;;;8.00;98.50;;;;;;5096434;28;20045;-68
2023/02/06 12:53:49;;;;;;;12.02;8.23;;;8.00;98.60;;;;;;5085448;28;20032;-69
2023/02/06 12:56:24;;;;;;;11.90;8.03;;;8.00;98.20;;;;;;5083182;28;20451;-69
2023/02/06 12:59:00;;;;;;;10.85;7.47;;;8.00;97.30;;;;;;5087407;28;20024;-69
2023/02/06 13:02:09;;;;;;;11.35;7.53;;;8.30;97.60;;;;;;5087693;28;20123;-69
2023/02/06 13:04:36;;;;;;;;;;;8.60;97.90;;;;;;5078842;28;20075;-69
2023/02/06 13:07:15;;;;;;;10.30;7.27;;;8.60;96.90;;;;;;5084050;28;19921;-69
2023/02/06 13:09:51;;;;;;;10.95;8.63;;;8.60;96.90;;;;;;5087834;28;20297;-69